Reese River Valley, Nevada Weather observations

Data are for 10 minute period ending at time listed.
 Day   Time   Solar   Ave.   Ave.  Ave.  Vector  Max.   Baro.   Total    
  of    of     Rad.   Air    Rel.  Wind   Wind   Wind  Press.  Precip.   
Year   Day            Temp.  Hum.  Speed  Dir.   Gust                    
2014   (PST)  Kw/m2    F      %     mph   deg.    mph    mb.     in.     
-------------------------------------------------------------------------
 355    5:30   0.00   41.8    84    7.6   188    10.7   817.3    0.00 
 355    5:40   0.00   42.0    83    7.5   225    11.5   817.4    0.00 
 355    5:50   0.00   41.6    85    5.9   232     8.5   817.6    0.00 
 355    6:00   0.00   42.0    84    8.3   184    10.4   817.5    0.00 
 355    6:10   0.00   43.0    80    9.2   170    14.5   817.4    0.00 
 355    6:20   0.00   43.5    79    6.3   187     9.0   817.4    0.00 
 355    6:30   0.00   43.3    79    7.1   171    11.7   817.5    0.00 
 355    6:40   0.00   43.0    80    6.6   176    10.7   817.6    0.00 
 355    6:50   0.00   44.8    74    6.3   180    10.5   817.5    0.00 
 355    7:00   0.00   44.6    75    7.7   172    12.3   817.3    0.00 
 355    7:10   0.00   45.1    74    9.8   167    16.6   817.3    0.00 
 355    7:20   0.01   46.1    72    8.3   174    15.0   817.4    0.00 
 355    7:30   0.01   45.7    74    6.1   175    10.2   817.4    0.00 
 355    7:40   0.01   46.3    72    5.9   180     9.7   817.4    0.00 
 355    7:50   0.02   46.0    73    6.5   164    10.6   817.5    0.00 
 355    8:00   0.03   46.2    73    3.8   180     5.8   817.6    0.00 
 355    8:10   0.04   46.2    72    6.2   167    10.6   817.6    0.00 
 355    8:20   0.06   46.7    72    6.0   181     9.6   817.7    0.00 
 355    8:30   0.08   46.3    73    7.0   189    14.0   817.7    0.00 
 355    8:40   0.09   47.1    72    6.0   177     9.2   817.9    0.00 
 355    8:50   0.07   47.3    72    6.4   174     8.7   818.1    0.00 
 355    9:00   0.08   47.5    71    6.9   174     9.9   818.2    0.00 
 355    9:10   0.09   48.1    70    6.4   191     8.6   818.3    0.00 
 355    9:20   0.11   48.0    71    6.6   216    11.2   818.3    0.00 
 355    9:30   0.10   48.3    68    8.2   222    12.5   818.4    0.00 
 355    9:40   0.09   48.5    68    6.1   229     9.1   818.5    0.00 
 355    9:50   0.14   49.1    65    7.4   244    10.4   818.4    0.00 
 355   10:00   0.16   49.3    66    5.7   248    12.4   818.3    0.00 
 355   10:10   0.17   49.5    66    5.5   262     9.7   818.5    0.00 
 355   10:20   0.23   50.3    64    6.6   256    10.4   818.4    0.00 
 355   10:30   0.23   50.8    63    8.8   242    13.1   818.3    0.00 
 355   10:40   0.18   50.1    65    9.9   248    14.8   818.4    0.00 
 355   10:50   0.23   50.4    64   10.6   243    14.0   818.5    0.00 
 355   11:00   0.14   50.0    64    9.7   259    14.7   818.5    0.00 
 355   11:10   0.11   50.0    63    8.0   254    13.7   818.4    0.00 
 355   11:20   0.13   50.1    61    6.9   264    16.7   818.5    0.00 
 355   11:30   0.11   50.2    62    5.1   253    12.4   818.3    0.00 
 355   11:40   0.10   50.0    63    7.3   215    13.4   818.1    0.00 
 355   11:50   0.09   49.9    63    2.3   250     6.0   818.1    0.00 
 355   12:00   0.09   50.2    62    2.9   217     8.6   818.1    0.00 
 355   12:10   0.07   50.2    62    3.7   220     9.9   817.8    0.00 
 355   12:20   0.05   49.9    63    4.1   193     6.1   817.7    0.00 
 355   12:30   0.03   49.9    62    3.8   261     7.3   817.8    0.00 
 355   12:40   0.03   50.1    59    1.8   144     5.8   817.5    0.00 
 355   12:50   0.02   50.1    60    4.2   176    11.0   817.5    0.00 
 355   13:00   0.02   49.8    61    4.4   207     8.3   817.5    0.00 
 355   13:10   0.03   49.2    65    3.6   229     6.6   817.4    0.00 
 355   13:20   0.04   48.7    67    7.1   225    10.2   817.4    0.00 
 355   13:30   0.05   49.1    66    7.4   179    12.0   817.3    0.00 
 355   13:40   0.05   49.1    68    7.3   173    10.0   817.3    0.00 
 355   13:50   0.03   48.7    69    5.6   196    10.3   817.6    0.00 
 355   14:00   0.03   48.1    72    4.6   179     7.5   817.7    0.00 
 355   14:10   0.03   47.6    75    4.8   173     7.2   817.8    0.00 
 355   14:20   0.05   47.6    73    4.7   197    11.0   817.7    0.00 
 355   14:30   0.11   49.2    66    3.7   284    10.2   817.5    0.00 
 355   14:40   0.20   50.4    64    4.0   204     8.0   817.7    0.00 
 355   14:50   0.16   51.3    62    5.7   147    11.3   817.7    0.00 
 355   15:00   0.03   50.3    64    5.8   170    10.9   817.6    0.00 
 355   15:10   0.02   49.9    63    4.3   162     8.9   817.6    0.00 
 355   15:20   0.01   49.9    64    4.4   187    16.0   817.6    0.00 
 355   15:30   0.01   49.8    64    3.0   258     7.2   817.8    0.00 
 355   15:40   0.01   49.8    63    6.7   268    12.7   817.9    0.00 
 355   15:50   0.01   50.0    63    4.5   322     8.3   818.0    0.00 
 355   16:00   0.01   48.7    68    4.4   246     6.9   817.9    0.00 
 355   16:10   0.01   48.9    67    7.7   156    22.6   817.8    0.00 
 355   16:20   0.00   49.0    67    5.6   198    14.0   818.1    0.00 
 355   16:30   0.00   48.1    69    4.6   187     7.9   817.7    0.00 
 355   16:40   0.00   48.1    69    3.4   160     7.5   817.6    0.00 
 355   16:50   0.00   47.6    70    4.5   223     7.8   817.6    0.00 
 355   17:00   0.00   47.2    72    5.5   194    10.2   817.5    0.00 
 355   17:10   0.00   47.7    71    5.0   154     9.3   817.5    0.00 
 355   17:20   0.00   47.5    70    4.3   209     9.4   817.6    0.00 
 355   17:30   0.00   47.4    72    7.5   173    12.1   817.6    0.00 
 355   17:40   0.00   47.3    72    4.3   278     9.1   818.2    0.00 
 355   17:50   0.00   47.7    70    4.2   263    11.4   818.2    0.00 
 355   18:00   0.00   48.1    69    5.1   240    10.2   818.2    0.00 
 355   18:10   0.00   48.1    68    6.6   229    11.0   818.1    0.00 
 355   18:20   0.00   46.5    72    4.4   234     8.9   818.2    0.00 
 355   18:30   0.00   47.3    70    8.2   275    15.4   818.4    0.00 
 355   18:40   0.00   47.9    69    6.1   292    15.2   818.5    0.00 
 355   18:50   0.00   48.3    68    7.2   301    14.7   818.7    0.00 
 355   19:00   0.00   48.1    69    5.9   299    10.0   819.0    0.00 
 355   19:10   0.00   48.4    68    7.5   284    13.4   818.8    0.00 
 355   19:20   0.00   48.8    67    7.7   275    14.8   818.6    0.00 
 355   19:30   0.00   47.6    69    5.0   288     8.4   818.6    0.00 
 355   19:40   0.00   47.6    69    4.1   315     7.6   818.8    0.00 
 355   19:50   0.00   47.1    70    4.5   301     9.1   818.8    0.00 
 355   20:00   0.00   47.9    68    7.7   267    11.3   818.7    0.00 
 355   20:10   0.00   47.7    69    5.1   272     8.6   818.8    0.00 
 355   20:20   0.00   47.1    70    3.0   219     6.2   818.8    0.00 
 355   20:30   0.00   46.7    72    3.5   208     5.8   818.8    0.00 
 355   20:40   0.00   47.2    70    1.5   214     4.7   818.9    0.00 
 355   20:50   0.00   47.2    69    4.3   259     9.0   818.9    0.00 
 355   21:00   0.00   47.0    70    3.1   196     5.3   818.8    0.00 
 355   21:10   0.00   46.1    72    3.0   182     5.8   818.9    0.00 
 355   21:20   0.00   46.5    70    5.0   237    11.1   819.1    0.00 
 355   21:30   0.00   46.1    72    5.0   255     7.0   819.2    0.00 
 355   21:40   0.00   45.0    75    3.3   238     7.2   819.2    0.00 
 355   21:50   0.00   44.7    76    3.2   220     6.4   819.2    0.00 
 355   22:00   0.00   44.9    75    3.2   211     5.0   819.2    0.00 
 355   22:10   0.00   45.1    75    1.3   214     2.8   819.3    0.00 
 355   22:20   0.00   45.3    74    0.8   194     2.8   819.3    0.00 
 355   22:30   0.00   45.6    74    0.9   197     2.9   819.3    0.00 
 355   22:40   0.00   44.7    76    3.8   181     7.2   819.4    0.00 
 355   22:50   0.00   45.5    74    3.2   237     7.5   819.4    0.00 
 355   23:00   0.00   45.3    74    1.7   132     3.2   819.3    0.00 
 355   23:10   0.00   44.9    76    1.6   129     2.8   819.4    0.00 
 355   23:20   0.00   44.7    76    1.9   176     3.4   819.4    0.00 
 355   23:30   0.00   44.3    77    3.5   214     6.9   819.4    0.00 
 355   23:40   0.00   44.4    76    4.5   210     6.0   819.3    0.00 
 355   23:50   0.00   44.2    77    3.7   191     6.8   819.2    0.00 
 356    0:00   0.00   43.4    79    2.9   205     5.8   819.1    0.00 
 356    0:10   0.00   43.8    77    3.9   217     6.3   819.2    0.00 
 356    0:20   0.00   43.9    77    3.9   216     6.6   819.2    0.00 
 356    0:30   0.00   44.3    75    4.2   230     7.2   819.1    0.00 
 356    0:40   0.00   43.9    75    4.3   245     7.7   819.1    0.00 
 356    0:50   0.00   44.0    75    5.0   247     6.3   819.1    0.00 
 356    1:00   0.00   43.7    75    6.4   244     8.3   819.2    0.00 
 356    1:10   0.00   43.5    75    6.4   258    11.0   819.1    0.00 
 356    1:20   0.00   43.4    76    6.0   264     9.8   819.3    0.00 
 356    1:30   0.00   43.6    75    6.5   256     9.0   819.4    0.00 
 356    1:40   0.00   43.5    76    8.1   243    14.0   819.4    0.00 
 356    1:50   0.00   44.0    75    8.3   233    11.0   819.3    0.00 
 356    2:00   0.00   43.2    76    7.0   230    10.6   819.2    0.00 
 356    2:10   0.00   42.6    78    5.4   215     6.6   819.1    0.00 
 356    2:20   0.00   42.1    79    4.9   214     8.2   819.1    0.00 
 356    2:30   0.00   41.5    80    3.4   218     5.0   818.9    0.00 
 356    2:40   0.00   40.7    81    1.1   256     2.1   819.1    0.00 
 356    2:50   0.00   41.2    82    4.3   245    10.2   819.1    0.00 
 356    3:00   0.00   42.3    80    8.7   247    15.7   819.0    0.00 
 356    3:10   0.00   43.3    77    8.1   226    16.4   818.9    0.00 
 356    3:20   0.00   42.2    79    6.6   240    10.7   818.9    0.00 
 356    3:30   0.00   41.8    80    9.9   226    15.3   818.8    0.00 
 356    3:40   0.00   40.4    83   10.2   249    14.0   818.8    0.00 
 356    3:50   0.00   39.7    85    8.6   243    12.1   818.9    0.00 
 356    4:00   0.00   39.1    86    8.1   241    10.2   818.9    0.00 
 356    4:10   0.00   39.2    86    6.4   245     8.1   818.9    0.00 
 356    4:20   0.00   39.0    86    7.5   216    12.8   818.6    0.00 
 356    4:30   0.00   41.1    82   13.3   200    18.6   818.4    0.00 
 356    4:40   0.00   41.6    80   13.4   202    18.2   818.4    0.00 
 356    4:50   0.00   41.4    79   11.9   206    16.1   818.4    0.00 
 356    5:00   0.00   41.4    79   13.1   197    18.9   818.2    0.00 
 356    5:10   0.00   41.3    79   13.3   202    19.4   818.0    0.00 
 356    5:20   0.00   41.6    78   12.9   216    16.5   818.0    0.00 

Return to Reese River Valley graphs page.


Western Regional Climate Center,wrcc@dri.edu